Create Custom Reports and Graphics: Custom Report

North/Central Map

Map

15 Minute Data

South County Map

Map

15 Minute Data

Northern Sonoma County Latest

13 Stations

15 Minute Data | America/Los_Angeles
as of 8/9/20 7:45 PM PDT
Station Date Time Temp (°F) RH (%) Dew Pt (°F) Wind Spd (mph) Wind Dir (°) Wind Gust (mph) Latest Rain (In) Daily Rain (In) Daily Min Temp (°F) Daily Max Temp (°F)
Rockpile Upper (Cooley) 8/9/20 1945 80.7   6.7 33   18 48.6   6.1 1.9 WNW | 299 5.5   2.0 0.00 0.00 66.0   2.7 97.1   4.7
Rockpile Lower (Cooley) 8/9/20 1915 87.7   6.1 25   17 47.4   8.6 4.5 WSW | 246 10.3   6.1 0.00 0.00 57.2   0.2 99.8   4.1
Cloverdale-East (Ranch 83) 8/9/20 1945 82.9   5.2 32   15 50.0   6.0 5.5 SSW | 194 12.7   0.2 0.00 0.00 54.8   0.7 100.3   3.9
Cloverdale-SE (Ranch 38) 8/9/20 1945 80.5   4.6 34   16 49.7   6.1 11.0 SSE | 157 15.2   0.4 0.00 0.00 55.2   0.4 96.9   2.3
Geyserville-North (Hoffman) 8/9/20 1945 78.5   4.4 36   16 49.5   6.1 2.6 S | 171 6.9   1.1 0.00 0.00 52.8   0.8 95.5   4.6
Geyserville (Ranch 3) 8/9/20 1945 79.4   4.5 33   17 48.1   7.2 3.7 SSE | 156 7.1   1.1 0.00 0.00 55.2   1.7 96.1   4.3
Geyserville-East (Ranch 40) 8/9/20 1945 76.9   4.4 38   17 49.4   6.0 6.8 SSE | 160 11.2   1.9 0.00 0.00 55.1   0.9 95.4   3.7
Geyserville-South (Nervo Station) 8/9/20 1945 75.6   4.6 37   18 47.8   6.5 5.3 SSW | 201 9.5   0.0 0.00 0.00 54.6   0.8 94.3   4.5
Lytton (River Oaks) 8/9/20 1945 77.6   4.3 39   14 50.9   4.5 2.4 ESE | 115 4.3   1.4 0.00 0.00 51.8   1.0 94.9   3.6
Jimtown-North (Piccolo-R15) 8/9/20 1945 77.9   3.6 33   13 46.6   5.7 1.5 SE | 136 5.0   0.9 0.00 0.00 53.0   1.1 95.9   4.3
Jimtown-NE (Red Fan) 8/9/20 1945 77.3   4.5 38   15 50.1   4.9 4.8 SSE | 163 10.6   0.8 0.00 0.00 54.8   1.2 94.9   4.1
HWY 128/Chalk Hill Rd (Landslide) 8/9/20 1945 77.4   5.7 39   16 50.9   4.1 3.2 WSW | 244 6.0   1.1 0.00 0.00 53.2   1.5 94.1   4.4
Lower Dry Creek Valley 8/9/20 1945 74.1   3.9 44   15 50.8   4.2 5.2 SE | 142 9.4   2.3 0.00 0.00 53.5   0.4 93.0   5.8
Max     87.7 44 50.9 11.0 - 15.2 0.00 0.00 66.0 100.3
Avg     79.0 36 49.2 4.5 - 8.7 0.00 - - -
Min     74.1 25 46.6 1.5 - 4.3 0.00 0.00 51.8 93.0

Central Sonoma County Latest

26 Stations

15 Minute Data | America/Los_Angeles
as of 8/9/20 7:45 PM PDT
Station Date Time Temp (°F) RH (%) Dew Pt (°F) Wind Spd (mph) Wind Dir (°) Wind Gust (mph) Latest Rain (In) Daily Rain (In) Daily Min Temp (°F) Daily Max Temp (°F)
Healdsburg-South (Sodini) 8/9/20 1945 73.5   4.7 42   17 49.1   4.7 5.8 SE | 133 12.1   2.0 0.00 0.00 53.0   1.1 93.5   5.7
Windsor-NW (Ranch 8) 8/9/20 1945 71.0   3.4 51   13 52.2   3.2 4.7 SE | 127 12.2   4.1 0.00 0.00 54.3   0.9 93.3   5.7
Windsor-East (Ranch 16) 8/9/20 1945 71.4   4.8 47   16 50.0   3.7 5.9 SSE | 163 9.7   0.2 0.00 0.00 52.4   0.8 90.3   5.2
Mark West-North (Ranch 14) 8/9/20 1945 69.5   4.2 54   11 52.4   1.2 3.6 SSE | 165 12.1   4.5 0.00 0.00 52.3   0.1 88.3   4.9
Windsor-SE (Silk Rd) 8/9/20 1945 68.5   2.3 57   8 52.9   1.3 3.5 SSE | 154 7.9   3.0 0.00 0.00 51.5   0.5 89.4   5.8
Fulton-NW (Ranch 5) 8/9/20 1945 69.5   3.7 58   9 53.9   0.5 4.6 ESE | 123 9.0   0.5 0.00 0.00 52.0   0.2 88.3   4.8
Windsor-South (Laughlin Rd) 8/9/20 1945 66.6   1.9 - - - - - 0.00 0.00 52.3   0.6 90.3   6.1
Fulton-SE (Barnes Rd) 8/9/20 1945 67.3   0.1 63   1 54.1   0.2 5.9 SSE | 148 10.4   3.0 0.00 0.00 52.5   0.3 87.8   5.1
Fulton-SW (Ranch 21) 8/9/20 1945 66.7   2.8 63   7 53.8   0.0 5.2 SSE | 152 11.6   0.5 0.00 0.00 52.2   0.2 87.6   5.5
Santa Rosa-NW (Goldfields) 8/9/20 1945 67.1   3.1 63   7 54.2   0.0 6.9 SE | 134 10.6   1.2 0.00 0.00 52.7   0.0 86.0   5.0
NW Santa Rosa (Piner Road) 8/9/20 1945 65.4   1.7 64   7 53.1   1.0 3.4 S | 179 8.8   0.7 0.00 0.00 50.4   0.1 85.6   5.0
River Rd South (Denner Ranch) 8/9/20 1945 64.3   0.8 69   2 54.0   0.1 9.3 SE | 129 14.7   2.0 0.00 0.00 50.4   0.2 85.2   6.0
West Santa Rosa (Hawk's Roost) 8/9/20 1945 64.9   0.6 66   3 53.5   0.7 2.3 SSE | 168 6.9   0.6 0.00 0.00 51.2   0.2 85.8   5.3
Guerneville Rd West (Balletto) 8/9/20 1945 63.7   0.0 72   0 54.5   0.1 6.2 S | 179 10.9   1.2 0.00 0.00 50.7   0.1 84.2   5.1
Guerneville Rd East (Rich Ranch) 8/9/20 1945 66.0   1.5 67   2 54.5   0.6 - - - - - 51.2   0.1 88.2   5.4
Occidental Rd (Sebastopol) 8/9/20 1945 63.5   1.2 67   4 52.4   0.5 4.5 S | 190 8.8   4.4 0.00 0.00 49.8   0.0 86.2   6.3
Lower Westside Rd (Ranch 12) 8/9/20 1945 69.8   1.4 57   5 54.1   1.1 3.4 SE | 139 7.8   1.8 0.00 0.00 51.7   0.6 92.8   5.5
Guerneville (Laughlin Rd) 8/9/20 1945 68.0   4.2 55   14 51.3   2.2 1.5 SE | 138 3.6   0.7 0.00 0.00 50.2   0.4 88.0   9.4
Korbel (Winery) 8/9/20 1945 73.1   6.0 43   20 49.4   4.5 0.8 WSW | 237 2.7   0.7 0.00 0.00 52.8   0.1 88.7   6.6
Forestville (Shone Farms) 8/9/20 1945 68.7   0.0 60   1 54.1   0.5 4.0 ESE | 104 8.2   2.4 0.00 0.00 52.1   1.1 92.7   7.1
Forestville-NE (Ranch 30) 8/9/20 1945 70.2   1.2 57   4 54.4   0.9 5.1 ESE | 106 11.1   6.2 0.00 0.00 51.5   0.8 90.6   5.7
Graton-West (Dutton Ranch) 8/9/20 1945 67.0   3.5 61   9 53.3   0.2 4.4 S | 190 8.5   3.5 0.00 0.00 50.4   0.0 85.7   5.5
Graton-South (Mill Station Rd) 8/9/20 1945 61.9   0.2 79   2 55.3   1.0 3.9 S | 184 8.4   2.7 0.00 0.00 47.9   1.0 79.0   6.2
Sexton Valley (Jacqueline's Blk) 8/9/20 1945 60.8   0.7 83   5 55.4   1.1 2.1 SSW | 212 7.2   1.9 0.00 0.00 48.9   0.7 80.1   7.6
Sebastopol Hills (Burnside Rd) 8/9/20 1945 57.8   0.9 93   7 55.6   1.2 6.3 SW | 230 12.2   1.5 0.00 0.00 51.2   0.7 76.6   5.2
Seaview/Fort Ross (Hirsch) 8/9/20 1945 74.8   5.6 34   25 44.3   9.9 0.7 NW | 321 2.1   0.2 0.00 0.00 62.1   3.3 85.3   14.7
Max     74.8 93 55.6 9.3 - 14.7 0.00 0.00 62.1 93.5
Avg     67.3 61 52.9 4.3 - 9.1 0.00 - - -
Min     57.8 34 44.3 0.7 - 2.1 0.00 0.00 47.9 76.6

Southern Sonoma County Latest

14 Stations

15 Minute Data | America/Los_Angeles
as of 8/9/20 7:45 PM PDT
Station Date Time Temp (°F) RH (%) Dew Pt (°F) Wind Spd (mph) Wind Dir (°) Wind Gust (mph) Latest Rain (In) Daily Rain (In) Daily Min Temp (°F) Daily Max Temp (°F)
Lower Bennett Valley 8/9/20 1945 70.9   4.6 40   24 45.3   8.3 4.3 E | 96 7.5   0.2 0.00 0.00 49.7   0.9 92.4   7.6
Kenwood (Kunde) 8/9/20 1945 74.7   3.2 36   19 46.2   8.4 0.9 WNW | 290 7.3   0.9 0.00 0.00 50.7   0.8 94.4   5.3
Sonoma Valley (Bedrock) 8/9/20 1945 77.9   7.4 28   23 42.3   9.6 2.8 NW | 311 6.1   4.0 0.00 0.00 52.3   0.6 94.1   4.8
Sonoma-West (Arnold) 8/9/20 1945 81.6   5.1 29   19 46.0   9.0 3.0 WSW | 256 7.6   1.6 0.00 0.00 51.4   0.4 96.6   5.3
Schellville 8/9/20 1945 72.1   1.4 51   6 53.1   1.6 4.3 WSW | 240 8.8   1.7 0.00 0.00 53.0   0.1 95.1   6.0
Sonoma-SE (Napoli) 8/9/20 1945 77.4   1.5 41   7 51.5   3.0 3.1 WSW | 244 8.8   0.7 0.00 0.00 51.7   0.8 92.5   5.3
Carneros (Ranch 71) 8/9/20 1945 74.2   2.6 46   9 52.1   2.5 9.5 WSW | 247 13.3   1.1 0.00 0.00 55.2   1.1 86.5   6.2
Carneros Upper (Ranch 81) 8/9/20 1930 72.8   1.2 56   6 56.3   2.1 7.9 SSW | 196 12.4   1.8 - - 57.0   1.7 88.4   6.7
Carneros Lower (Ranch 81) 8/9/20 1930 70.5   4.1 65   14 58.3   3.0 5.3 S | 179 8.9   5.2 0.00 0.00 52.6   1.7 87.0   7.2
Rohnert Park-West (Stony Point) 8/9/20 1945 61.2   1.3 82   0 55.8   1.1 3.6 SSW | 196 7.1   2.5 0.00 0.00 49.8   1.2 83.3   4.7
Penngrove (Asellus) 8/9/20 1945 66.5   2.9 60   12 52.1   2.3 5.1 NW | 310 8.0   0.5 0.00 0.00 50.2   0.8 89.0   6.9
Roger's Creek (Ranch 50) 8/9/20 1945 68.1   1.7 58   7 52.6   1.5 7.7 W | 259 14.2   2.7 0.00 0.00 51.1   1.0 90.2   6.9
Petaluma (Ranch 10) 8/9/20 1945 68.5   2.1 59   6 53.6   0.7 3.7 WNW | 285 8.6   1.1 0.00 0.00 54.0   2.7 91.2   5.7
Lakeville (Ranch 47) 8/9/20 1945 70.1   1.1 57   3 54.2   0.3 6.3 NNW | 340 14.5   0.4 0.00 0.00 53.4   0.7 84.9   3.3
Max     81.6 82 58.3 9.5 - 14.5 0.00 0.00 57.0 96.6
Avg     71.9 51 51.4 4.8 - 9.5 0.00 - - -
Min     61.2 28 42.3 0.9 - 6.1 0.00 0.00 49.7 83.3

Air Quality (Current)

Map

15 Minute Data